sensor_id;sensor_type;location;lat;lon;timestamp;P1;durP1;ratioP1;P2;durP2;ratioP2
30048;SDS011;16879;50.852;15.602;2023-04-24T00:00:09;5.78;;;3.78;;
30048;SDS011;16879;50.852;15.602;2023-04-24T00:02:37;4.70;;;3.05;;
30048;SDS011;16879;50.852;15.602;2023-04-24T00:05:06;3.25;;;2.90;;
30048;SDS011;16879;50.852;15.602;2023-04-24T00:07:34;3.72;;;2.83;;
30048;SDS011;16879;50.852;15.602;2023-04-24T00:10:00;3.65;;;3.33;;
30048;SDS011;16879;50.852;15.602;2023-04-24T00:12:27;8.05;;;3.45;;
30048;SDS011;16879;50.852;15.602;2023-04-24T00:14:53;4.97;;;2.95;;
30048;SDS011;16879;50.852;15.602;2023-04-24T00:17:19;7.13;;;4.85;;
30048;SDS011;16879;50.852;15.602;2023-04-24T00:19:46;6.72;;;3.90;;
30048;SDS011;16879;50.852;15.602;2023-04-24T00:22:12;5.43;;;3.40;;
30048;SDS011;16879;50.852;15.602;2023-04-24T00:24:39;4.35;;;3.10;;
30048;SDS011;16879;50.852;15.602;2023-04-24T00:27:05;5.93;;;3.63;;
30048;SDS011;16879;50.852;15.602;2023-04-24T00:29:31;5.28;;;4.72;;
30048;SDS011;16879;50.852;15.602;2023-04-24T00:31:58;5.50;;;3.38;;
30048;SDS011;16879;50.852;15.602;2023-04-24T00:34:24;6.80;;;4.10;;
30048;SDS011;16879;50.852;15.602;2023-04-24T00:36:50;6.07;;;4.18;;
30048;SDS011;16879;50.852;15.602;2023-04-24T00:39:20;5.85;;;4.38;;
30048;SDS011;16879;50.852;15.602;2023-04-24T00:41:46;5.57;;;4.13;;
30048;SDS011;16879;50.852;15.602;2023-04-24T00:44:13;9.23;;;5.63;;
30048;SDS011;16879;50.852;15.602;2023-04-24T00:46:39;6.63;;;5.10;;
30048;SDS011;16879;50.852;15.602;2023-04-24T00:49:06;8.68;;;4.65;;
30048;SDS011;16879;50.852;15.602;2023-04-24T00:51:32;5.35;;;4.15;;
30048;SDS011;16879;50.852;15.602;2023-04-24T00:53:59;7.50;;;5.03;;
30048;SDS011;16879;50.852;15.602;2023-04-24T00:56:26;9.75;;;5.72;;
30048;SDS011;16879;50.852;15.602;2023-04-24T00:58:52;4.90;;;4.32;;
30048;SDS011;16879;50.852;15.602;2023-04-24T01:01:19;7.32;;;4.50;;
30048;SDS011;16879;50.852;15.602;2023-04-24T01:03:46;9.30;;;5.28;;
30048;SDS011;16879;50.852;15.602;2023-04-24T01:06:12;6.60;;;4.95;;
30048;SDS011;16879;50.852;15.602;2023-04-24T01:08:39;8.63;;;5.55;;
30048;SDS011;16879;50.852;15.602;2023-04-24T01:11:05;9.63;;;4.88;;
30048;SDS011;16879;50.852;15.602;2023-04-24T01:13:32;7.60;;;4.60;;
30048;SDS011;16879;50.852;15.602;2023-04-24T01:15:58;7.65;;;4.63;;
30048;SDS011;16879;50.852;15.602;2023-04-24T01:18:25;7.30;;;5.03;;
30048;SDS011;16879;50.852;15.602;2023-04-24T01:20:53;6.85;;;4.80;;
30048;SDS011;16879;50.852;15.602;2023-04-24T01:23:22;7.20;;;4.47;;
30048;SDS011;16879;50.852;15.602;2023-04-24T01:25:48;4.82;;;3.90;;
30048;SDS011;16879;50.852;15.602;2023-04-24T01:28:15;4.72;;;4.25;;
30048;SDS011;16879;50.852;15.602;2023-04-24T01:30:42;5.15;;;4.50;;
30048;SDS011;16879;50.852;15.602;2023-04-24T01:33:08;5.30;;;4.35;;
30048;SDS011;16879;50.852;15.602;2023-04-24T01:35:35;4.65;;;4.15;;
30048;SDS011;16879;50.852;15.602;2023-04-24T01:38:02;5.03;;;4.20;;
30048;SDS011;16879;50.852;15.602;2023-04-24T01:40:28;4.72;;;4.30;;
30048;SDS011;16879;50.852;15.602;2023-04-24T01:42:54;4.28;;;3.88;;
30048;SDS011;16879;50.852;15.602;2023-04-24T01:45:21;4.35;;;3.45;;
30048;SDS011;16879;50.852;15.602;2023-04-24T01:47:47;5.45;;;4.05;;
30048;SDS011;16879;50.852;15.602;2023-04-24T01:50:14;5.47;;;3.30;;
30048;SDS011;16879;50.852;15.602;2023-04-24T01:52:40;5.97;;;3.78;;
30048;SDS011;16879;50.852;15.602;2023-04-24T01:55:06;7.00;;;4.18;;
30048;SDS011;16879;50.852;15.602;2023-04-24T01:57:33;6.15;;;4.65;;
30048;SDS011;16879;50.852;15.602;2023-04-24T01:59:59;3.85;;;3.45;;
30048;SDS011;16879;50.852;15.602;2023-04-24T02:02:25;5.63;;;3.28;;
30048;SDS011;16879;50.852;15.602;2023-04-24T02:04:55;6.82;;;3.75;;
30048;SDS011;16879;50.852;15.602;2023-04-24T02:07:21;12.20;;;4.88;;
30048;SDS011;16879;50.852;15.602;2023-04-24T02:09:48;6.80;;;4.07;;
30048;SDS011;16879;50.852;15.602;2023-04-24T02:12:14;5.95;;;4.50;;
30048;SDS011;16879;50.852;15.602;2023-04-24T02:14:42;6.53;;;5.03;;
30048;SDS011;16879;50.852;15.602;2023-04-24T02:17:08;6.13;;;4.72;;
30048;SDS011;16879;50.852;15.602;2023-04-24T02:19:34;8.23;;;4.57;;
30048;SDS011;16879;50.852;15.602;2023-04-24T02:22:00;5.82;;;4.63;;
30048;SDS011;16879;50.852;15.602;2023-04-24T02:24:26;5.38;;;4.63;;
30048;SDS011;16879;50.852;15.602;2023-04-24T02:26:53;5.10;;;4.60;;
30048;SDS011;16879;50.852;15.602;2023-04-24T02:29:21;6.53;;;4.07;;
30048;SDS011;16879;50.852;15.602;2023-04-24T02:31:47;4.60;;;3.92;;
30048;SDS011;16879;50.852;15.602;2023-04-24T02:34:13;4.35;;;4.05;;
30048;SDS011;16879;50.852;15.602;2023-04-24T02:36:40;5.00;;;3.72;;
30048;SDS011;16879;50.852;15.602;2023-04-24T02:39:06;4.05;;;3.65;;
30048;SDS011;16879;50.852;15.602;2023-04-24T02:41:32;5.38;;;3.50;;
30048;SDS011;16879;50.852;15.602;2023-04-24T02:43:58;4.68;;;3.40;;
30048;SDS011;16879;50.852;15.602;2023-04-24T02:46:25;6.53;;;3.50;;
30048;SDS011;16879;50.852;15.602;2023-04-24T02:48:51;3.03;;;2.65;;
30048;SDS011;16879;50.852;15.602;2023-04-24T02:51:17;5.55;;;2.97;;
30048;SDS011;16879;50.852;15.602;2023-04-24T02:53:43;2.72;;;2.53;;
30048;SDS011;16879;50.852;15.602;2023-04-24T02:56:09;3.05;;;2.65;;
30048;SDS011;16879;50.852;15.602;2023-04-24T02:58:37;3.60;;;2.63;;
30048;SDS011;16879;50.852;15.602;2023-04-24T03:01:03;4.80;;;3.03;;
30048;SDS011;16879;50.852;15.602;2023-04-24T03:03:30;6.28;;;3.10;;
30048;SDS011;16879;50.852;15.602;2023-04-24T03:05:56;3.30;;;3.00;;
30048;SDS011;16879;50.852;15.602;2023-04-24T03:08:22;4.32;;;3.28;;
30048;SDS011;16879;50.852;15.602;2023-04-24T03:10:48;3.38;;;2.97;;
30048;SDS011;16879;50.852;15.602;2023-04-24T03:13:15;6.68;;;4.25;;
30048;SDS011;16879;50.852;15.602;2023-04-24T03:15:41;4.40;;;3.95;;
30048;SDS011;16879;50.852;15.602;2023-04-24T03:18:08;3.97;;;3.13;;
30048;SDS011;16879;50.852;15.602;2023-04-24T03:20:34;4.65;;;4.00;;
30048;SDS011;16879;50.852;15.602;2023-04-24T03:23:02;6.00;;;4.47;;
30048;SDS011;16879;50.852;15.602;2023-04-24T03:25:28;4.95;;;3.75;;
30048;SDS011;16879;50.852;15.602;2023-04-24T03:27:54;6.72;;;4.50;;
30048;SDS011;16879;50.852;15.602;2023-04-24T03:30:20;3.60;;;3.30;;
30048;SDS011;16879;50.852;15.602;2023-04-24T03:32:46;4.85;;;4.00;;
30048;SDS011;16879;50.852;15.602;2023-04-24T03:35:13;5.53;;;4.18;;
30048;SDS011;16879;50.852;15.602;2023-04-24T03:37:39;5.45;;;3.72;;
30048;SDS011;16879;50.852;15.602;2023-04-24T03:40:05;4.22;;;3.30;;
30048;SDS011;16879;50.852;15.602;2023-04-24T03:42:32;7.32;;;4.97;;
30048;SDS011;16879;50.852;15.602;2023-04-24T03:44:58;8.40;;;6.55;;
30048;SDS011;16879;50.852;15.602;2023-04-24T03:47:24;9.68;;;7.40;;
30048;SDS011;16879;50.852;15.602;2023-04-24T03:49:50;8.20;;;6.63;;
30048;SDS011;16879;50.852;15.602;2023-04-24T03:52:17;10.35;;;6.82;;
30048;SDS011;16879;50.852;15.602;2023-04-24T03:54:43;8.23;;;7.28;;
30048;SDS011;16879;50.852;15.602;2023-04-24T03:57:09;11.38;;;6.90;;
30048;SDS011;16879;50.852;15.602;2023-04-24T03:59:35;9.13;;;6.90;;
30048;SDS011;16879;50.852;15.602;2023-04-24T04:02:02;8.63;;;5.78;;
30048;SDS011;16879;50.852;15.602;2023-04-24T04:04:28;8.88;;;6.32;;
30048;SDS011;16879;50.852;15.602;2023-04-24T04:06:54;7.88;;;6.03;;
30048;SDS011;16879;50.852;15.602;2023-04-24T04:09:20;7.28;;;4.93;;
30048;SDS011;16879;50.852;15.602;2023-04-24T04:11:46;10.50;;;6.03;;
30048;SDS011;16879;50.852;15.602;2023-04-24T04:14:13;10.23;;;6.65;;
30048;SDS011;16879;50.852;15.602;2023-04-24T04:16:39;7.68;;;6.28;;
30048;SDS011;16879;50.852;15.602;2023-04-24T04:19:05;9.77;;;7.18;;
30048;SDS011;16879;50.852;15.602;2023-04-24T04:21:31;8.88;;;6.35;;
30048;SDS011;16879;50.852;15.602;2023-04-24T04:23:57;7.63;;;4.70;;
30048;SDS011;16879;50.852;15.602;2023-04-24T04:26:24;9.02;;;6.60;;
30048;SDS011;16879;50.852;15.602;2023-04-24T04:28:51;9.85;;;7.32;;
30048;SDS011;16879;50.852;15.602;2023-04-24T04:31:18;6.93;;;5.93;;
30048;SDS011;16879;50.852;15.602;2023-04-24T04:33:44;6.75;;;6.05;;
30048;SDS011;16879;50.852;15.602;2023-04-24T04:36:12;9.70;;;6.07;;
30048;SDS011;16879;50.852;15.602;2023-04-24T04:38:39;9.30;;;6.82;;
30048;SDS011;16879;50.852;15.602;2023-04-24T04:41:08;8.73;;;7.18;;
30048;SDS011;16879;50.852;15.602;2023-04-24T04:43:34;9.40;;;6.72;;
30048;SDS011;16879;50.852;15.602;2023-04-24T04:46:01;10.48;;;6.50;;
30048;SDS011;16879;50.852;15.602;2023-04-24T04:48:28;8.15;;;6.80;;
30048;SDS011;16879;50.852;15.602;2023-04-24T04:50:56;9.80;;;6.40;;
30048;SDS011;16879;50.852;15.602;2023-04-24T04:53:23;10.85;;;6.05;;
30048;SDS011;16879;50.852;15.602;2023-04-24T04:55:49;6.78;;;6.03;;
30048;SDS011;16879;50.852;15.602;2023-04-24T04:58:15;6.80;;;5.10;;
30048;SDS011;16879;50.852;15.602;2023-04-24T05:00:41;7.32;;;5.38;;
30048;SDS011;16879;50.852;15.602;2023-04-24T05:03:07;8.15;;;6.00;;
30048;SDS011;16879;50.852;15.602;2023-04-24T05:05:34;7.35;;;6.60;;
30048;SDS011;16879;50.852;15.602;2023-04-24T05:08:00;7.68;;;5.85;;
30048;SDS011;16879;50.852;15.602;2023-04-24T05:10:26;7.45;;;6.15;;
30048;SDS011;16879;50.852;15.602;2023-04-24T05:15:17;8.07;;;6.20;;
30048;SDS011;16879;50.852;15.602;2023-04-24T05:17:44;14.27;;;6.80;;
30048;SDS011;16879;50.852;15.602;2023-04-24T05:20:10;7.68;;;5.45;;
30048;SDS011;16879;50.852;15.602;2023-04-24T05:22:36;7.57;;;5.18;;
30048;SDS011;16879;50.852;15.602;2023-04-24T05:25:03;11.63;;;7.10;;
30048;SDS011;16879;50.852;15.602;2023-04-24T05:27:29;5.90;;;5.10;;
30048;SDS011;16879;50.852;15.602;2023-04-24T05:29:55;9.77;;;5.78;;
30048;SDS011;16879;50.852;15.602;2023-04-24T05:32:21;8.95;;;6.13;;
30048;SDS011;16879;50.852;15.602;2023-04-24T05:34:47;13.32;;;6.60;;
30048;SDS011;16879;50.852;15.602;2023-04-24T05:37:14;11.85;;;6.90;;
30048;SDS011;16879;50.852;15.602;2023-04-24T05:39:40;19.50;;;8.00;;
30048;SDS011;16879;50.852;15.602;2023-04-24T05:42:06;19.50;;;8.60;;
30048;SDS011;16879;50.852;15.602;2023-04-24T05:44:32;16.58;;;7.07;;
30048;SDS011;16879;50.852;15.602;2023-04-24T05:47:00;9.18;;;5.45;;
30048;SDS011;16879;50.852;15.602;2023-04-24T05:49:28;6.05;;;3.67;;
30048;SDS011;16879;50.852;15.602;2023-04-24T05:51:54;6.93;;;3.60;;
30048;SDS011;16879;50.852;15.602;2023-04-24T05:54:21;5.00;;;3.03;;
30048;SDS011;16879;50.852;15.602;2023-04-24T05:56:48;8.18;;;3.53;;
30048;SDS011;16879;50.852;15.602;2023-04-24T05:59:15;3.72;;;3.03;;
30048;SDS011;16879;50.852;15.602;2023-04-24T06:01:41;5.57;;;3.50;;
30048;SDS011;16879;50.852;15.602;2023-04-24T06:04:09;13.82;;;5.32;;
30048;SDS011;16879;50.852;15.602;2023-04-24T06:06:35;11.75;;;4.35;;
30048;SDS011;16879;50.852;15.602;2023-04-24T06:09:01;11.13;;;5.18;;
30048;SDS011;16879;50.852;15.602;2023-04-24T06:11:28;8.55;;;4.45;;
30048;SDS011;16879;50.852;15.602;2023-04-24T06:13:54;12.68;;;6.68;;
30048;SDS011;16879;50.852;15.602;2023-04-24T06:16:20;11.13;;;6.70;;
30048;SDS011;16879;50.852;15.602;2023-04-24T06:18:46;12.30;;;7.95;;
30048;SDS011;16879;50.852;15.602;2023-04-24T06:21:12;19.02;;;10.48;;
30048;SDS011;16879;50.852;15.602;2023-04-24T06:23:39;20.92;;;9.88;;
30048;SDS011;16879;50.852;15.602;2023-04-24T06:26:05;19.33;;;10.27;;
30048;SDS011;16879;50.852;15.602;2023-04-24T06:28:31;17.95;;;8.48;;
30048;SDS011;16879;50.852;15.602;2023-04-24T06:30:57;6.93;;;4.53;;
30048;SDS011;16879;50.852;15.602;2023-04-24T06:33:23;8.10;;;4.85;;
30048;SDS011;16879;50.852;15.602;2023-04-24T06:35:49;7.20;;;4.68;;
30048;SDS011;16879;50.852;15.602;2023-04-24T06:38:15;6.50;;;4.18;;
30048;SDS011;16879;50.852;15.602;2023-04-24T06:40:42;4.68;;;3.63;;
30048;SDS011;16879;50.852;15.602;2023-04-24T06:43:08;4.72;;;3.78;;
30048;SDS011;16879;50.852;15.602;2023-04-24T06:45:35;4.35;;;3.70;;
30048;SDS011;16879;50.852;15.602;2023-04-24T06:48:01;4.95;;;4.05;;
30048;SDS011;16879;50.852;15.602;2023-04-24T06:50:27;6.88;;;4.72;;
30048;SDS011;16879;50.852;15.602;2023-04-24T06:52:53;4.45;;;4.05;;
30048;SDS011;16879;50.852;15.602;2023-04-24T06:55:20;6.43;;;4.93;;
30048;SDS011;16879;50.852;15.602;2023-04-24T06:57:46;6.03;;;3.70;;
30048;SDS011;16879;50.852;15.602;2023-04-24T07:00:12;4.88;;;4.35;;
30048;SDS011;16879;50.852;15.602;2023-04-24T07:02:41;6.75;;;4.30;;
30048;SDS011;16879;50.852;15.602;2023-04-24T07:05:08;4.55;;;4.15;;
30048;SDS011;16879;50.852;15.602;2023-04-24T07:07:34;6.32;;;5.03;;
30048;SDS011;16879;50.852;15.602;2023-04-24T07:10:04;4.72;;;4.03;;
30048;SDS011;16879;50.852;15.602;2023-04-24T07:12:39;4.35;;;4.05;;
30048;SDS011;16879;50.852;15.602;2023-04-24T07:15:05;4.47;;;3.80;;
30048;SDS011;16879;50.852;15.602;2023-04-24T07:17:34;4.68;;;4.20;;
30048;SDS011;16879;50.852;15.602;2023-04-24T07:20:03;4.00;;;3.67;;
30048;SDS011;16879;50.852;15.602;2023-04-24T07:22:30;4.32;;;3.92;;
30048;SDS011;16879;50.852;15.602;2023-04-24T07:24:56;7.97;;;4.20;;
30048;SDS011;16879;50.852;15.602;2023-04-24T07:27:23;5.05;;;3.35;;
30048;SDS011;16879;50.852;15.602;2023-04-24T07:29:49;4.30;;;3.90;;
30048;SDS011;16879;50.852;15.602;2023-04-24T07:32:15;5.28;;;3.50;;
30048;SDS011;16879;50.852;15.602;2023-04-24T07:34:41;6.43;;;3.92;;
30048;SDS011;16879;50.852;15.602;2023-04-24T07:37:08;3.58;;;3.28;;
30048;SDS011;16879;50.852;15.602;2023-04-24T07:39:34;3.40;;;2.90;;
30048;SDS011;16879;50.852;15.602;2023-04-24T07:42:00;3.80;;;3.15;;
30048;SDS011;16879;50.852;15.602;2023-04-24T07:44:27;2.72;;;2.28;;
30048;SDS011;16879;50.852;15.602;2023-04-24T07:46:53;3.55;;;3.20;;
30048;SDS011;16879;50.852;15.602;2023-04-24T07:49:19;5.10;;;2.83;;
30048;SDS011;16879;50.852;15.602;2023-04-24T07:51:45;3.65;;;2.40;;
30048;SDS011;16879;50.852;15.602;2023-04-24T07:54:12;2.80;;;2.60;;
30048;SDS011;16879;50.852;15.602;2023-04-24T07:56:38;2.70;;;2.50;;
30048;SDS011;16879;50.852;15.602;2023-04-24T07:59:04;3.25;;;3.00;;
30048;SDS011;16879;50.852;15.602;2023-04-24T08:01:31;4.22;;;3.13;;
30048;SDS011;16879;50.852;15.602;2023-04-24T08:03:57;4.45;;;2.83;;
30048;SDS011;16879;50.852;15.602;2023-04-24T08:06:23;2.45;;;2.20;;
30048;SDS011;16879;50.852;15.602;2023-04-24T08:08:50;3.00;;;2.80;;
30048;SDS011;16879;50.852;15.602;2023-04-24T08:11:17;4.28;;;3.42;;
30048;SDS011;16879;50.852;15.602;2023-04-24T08:13:43;3.78;;;3.28;;
30048;SDS011;16879;50.852;15.602;2023-04-24T08:16:09;2.83;;;2.60;;
30048;SDS011;16879;50.852;15.602;2023-04-24T08:18:35;3.55;;;2.78;;
30048;SDS011;16879;50.852;15.602;2023-04-24T08:21:01;4.15;;;2.85;;
30048;SDS011;16879;50.852;15.602;2023-04-24T08:23:28;7.03;;;2.78;;
30048;SDS011;16879;50.852;15.602;2023-04-24T08:25:55;3.25;;;2.95;;
30048;SDS011;16879;50.852;15.602;2023-04-24T08:28:22;4.80;;;3.17;;
30048;SDS011;16879;50.852;15.602;2023-04-24T08:30:48;3.33;;;3.03;;
30048;SDS011;16879;50.852;15.602;2023-04-24T08:33:19;4.55;;;2.70;;
30048;SDS011;16879;50.852;15.602;2023-04-24T08:35:45;4.30;;;2.60;;
30048;SDS011;16879;50.852;15.602;2023-04-24T08:38:12;5.82;;;3.17;;
30048;SDS011;16879;50.852;15.602;2023-04-24T08:40:38;2.67;;;2.47;;
30048;SDS011;16879;50.852;15.602;2023-04-24T08:43:04;3.00;;;2.70;;
30048;SDS011;16879;50.852;15.602;2023-04-24T08:45:31;4.03;;;3.05;;
30048;SDS011;16879;50.852;15.602;2023-04-24T08:47:58;5.57;;;3.45;;
30048;SDS011;16879;50.852;15.602;2023-04-24T08:50:24;3.85;;;3.22;;
30048;SDS011;16879;50.852;15.602;2023-04-24T08:52:51;3.40;;;2.75;;
30048;SDS011;16879;50.852;15.602;2023-04-24T08:55:19;6.20;;;3.67;;
30048;SDS011;16879;50.852;15.602;2023-04-24T08:57:46;4.13;;;2.45;;
30048;SDS011;16879;50.852;15.602;2023-04-24T09:00:16;4.00;;;2.65;;
30048;SDS011;16879;50.852;15.602;2023-04-24T09:02:42;3.22;;;2.72;;
30048;SDS011;16879;50.852;15.602;2023-04-24T09:05:09;3.00;;;2.70;;
30048;SDS011;16879;50.852;15.602;2023-04-24T09:07:36;4.00;;;2.42;;
30048;SDS011;16879;50.852;15.602;2023-04-24T09:10:05;4.05;;;3.00;;
30048;SDS011;16879;50.852;15.602;2023-04-24T09:12:32;5.38;;;3.13;;
30048;SDS011;16879;50.852;15.602;2023-04-24T09:15:00;5.13;;;4.18;;
30048;SDS011;16879;50.852;15.602;2023-04-24T09:17:26;4.70;;;3.50;;
30048;SDS011;16879;50.852;15.602;2023-04-24T09:19:53;5.45;;;4.85;;
30048;SDS011;16879;50.852;15.602;2023-04-24T09:22:19;4.75;;;3.58;;
30048;SDS011;16879;50.852;15.602;2023-04-24T09:24:46;6.18;;;4.93;;
30048;SDS011;16879;50.852;15.602;2023-04-24T09:27:12;5.60;;;4.43;;
30048;SDS011;16879;50.852;15.602;2023-04-24T09:29:47;5.15;;;3.35;;
30048;SDS011;16879;50.852;15.602;2023-04-24T09:32:20;3.35;;;3.05;;
30048;SDS011;16879;50.852;15.602;2023-04-24T09:35:11;3.72;;;2.90;;
30048;SDS011;16879;50.852;15.602;2023-04-24T09:37:38;3.55;;;2.50;;
30048;SDS011;16879;50.852;15.602;2023-04-24T09:42:33;2.33;;;2.13;;
30048;SDS011;16879;50.852;15.602;2023-04-24T09:45:00;3.25;;;2.00;;
30048;SDS011;16879;50.852;15.602;2023-04-24T09:47:26;2.38;;;1.42;;
30048;SDS011;16879;50.852;15.602;2023-04-24T09:49:53;1.67;;;1.33;;
30048;SDS011;16879;50.852;15.602;2023-04-24T09:52:23;15.63;;;8.65;;
30048;SDS011;16879;50.852;15.602;2023-04-24T09:54:53;70.22;;;22.83;;
30048;SDS011;16879;50.852;15.602;2023-04-24T09:57:19;144.38;;;28.98;;
30048;SDS011;16879;50.852;15.602;2023-04-24T09:59:45;36.03;;;10.13;;
30048;SDS011;16879;50.852;15.602;2023-04-24T10:02:18;18.40;;;6.93;;
30048;SDS011;16879;50.852;15.602;2023-04-24T10:04:54;11.47;;;4.87;;
30048;SDS011;16879;50.852;15.602;2023-04-24T10:07:21;6.15;;;3.22;;
30048;SDS011;16879;50.852;15.602;2023-04-24T10:09:47;3.88;;;1.95;;
30048;SDS011;16879;50.852;15.602;2023-04-24T10:12:14;9.45;;;4.32;;
30048;SDS011;16879;50.852;15.602;2023-04-24T10:14:42;14.18;;;7.47;;
30048;SDS011;16879;50.852;15.602;2023-04-24T10:17:08;11.63;;;7.50;;
30048;SDS011;16879;50.852;15.602;2023-04-24T10:19:34;26.38;;;15.88;;
30048;SDS011;16879;50.852;15.602;2023-04-24T10:22:01;7.05;;;5.38;;
30048;SDS011;16879;50.852;15.602;2023-04-24T10:24:28;8.15;;;4.50;;
30048;SDS011;16879;50.852;15.602;2023-04-24T10:26:54;4.30;;;2.92;;
30048;SDS011;16879;50.852;15.602;2023-04-24T10:29:22;6.50;;;4.50;;
30048;SDS011;16879;50.852;15.602;2023-04-24T10:31:48;2.70;;;2.30;;
30048;SDS011;16879;50.852;15.602;2023-04-24T10:34:15;8.38;;;3.42;;
30048;SDS011;16879;50.852;15.602;2023-04-24T10:36:42;3.50;;;2.03;;
30048;SDS011;16879;50.852;15.602;2023-04-24T10:39:10;2.05;;;1.58;;
30048;SDS011;16879;50.852;15.602;2023-04-24T10:41:37;1.95;;;1.70;;
30048;SDS011;16879;50.852;15.602;2023-04-24T10:44:07;2.78;;;1.77;;
30048;SDS011;16879;50.852;15.602;2023-04-24T10:46:34;4.43;;;2.40;;
30048;SDS011;16879;50.852;15.602;2023-04-24T10:49:07;3.35;;;2.38;;
30048;SDS011;16879;50.852;15.602;2023-04-24T10:51:47;4.28;;;2.45;;
30048;SDS011;16879;50.852;15.602;2023-04-24T10:56:49;1.67;;;1.50;;
30048;SDS011;16879;50.852;15.602;2023-04-24T10:59:35;2.38;;;1.92;;
30048;SDS011;16879;50.852;15.602;2023-04-24T11:02:02;7.65;;;2.90;;
30048;SDS011;16879;50.852;15.602;2023-04-24T11:04:32;4.05;;;2.20;;
30048;SDS011;16879;50.852;15.602;2023-04-24T11:06:59;2.67;;;2.22;;
30048;SDS011;16879;50.852;15.602;2023-04-24T11:09:30;3.88;;;2.20;;
30048;SDS011;16879;50.852;15.602;2023-04-24T11:12:03;10.52;;;5.93;;
30048;SDS011;16879;50.852;15.602;2023-04-24T11:15:01;10.23;;;4.00;;
30048;SDS011;16879;50.852;15.602;2023-04-24T11:17:34;3.40;;;2.53;;
30048;SDS011;16879;50.852;15.602;2023-04-24T11:20:10;4.78;;;2.53;;
30048;SDS011;16879;50.852;15.602;2023-04-24T11:22:37;5.35;;;3.25;;
30048;SDS011;16879;50.852;15.602;2023-04-24T11:25:07;6.13;;;2.53;;
30048;SDS011;16879;50.852;15.602;2023-04-24T11:27:43;4.10;;;2.20;;
30048;SDS011;16879;50.852;15.602;2023-04-24T11:30:16;2.50;;;2.17;;
30048;SDS011;16879;50.852;15.602;2023-04-24T11:32:47;2.58;;;2.10;;
30048;SDS011;16879;50.852;15.602;2023-04-24T11:37:42;4.30;;;2.38;;
30048;SDS011;16879;50.852;15.602;2023-04-24T11:40:10;2.60;;;2.40;;
30048;SDS011;16879;50.852;15.602;2023-04-24T11:42:40;2.72;;;2.30;;
30048;SDS011;16879;50.852;15.602;2023-04-24T11:45:07;2.55;;;2.35;;
30048;SDS011;16879;50.852;15.602;2023-04-24T11:47:34;3.25;;;2.50;;
30048;SDS011;16879;50.852;15.602;2023-04-24T11:50:00;2.58;;;2.35;;
30048;SDS011;16879;50.852;15.602;2023-04-24T11:52:27;3.33;;;2.28;;
30048;SDS011;16879;50.852;15.602;2023-04-24T11:54:53;2.30;;;2.10;;
30048;SDS011;16879;50.852;15.602;2023-04-24T11:57:20;4.15;;;2.58;;
30048;SDS011;16879;50.852;15.602;2023-04-24T11:59:47;3.30;;;2.40;;
30048;SDS011;16879;50.852;15.602;2023-04-24T12:02:26;4.45;;;2.63;;
30048;SDS011;16879;50.852;15.602;2023-04-24T12:04:52;3.20;;;2.33;;
30048;SDS011;16879;50.852;15.602;2023-04-24T12:07:19;1.70;;;1.60;;
30048;SDS011;16879;50.852;15.602;2023-04-24T12:09:47;4.85;;;1.70;;
30048;SDS011;16879;50.852;15.602;2023-04-24T12:12:13;1.77;;;1.67;;
30048;SDS011;16879;50.852;15.602;2023-04-24T12:14:47;2.08;;;1.40;;
30048;SDS011;16879;50.852;15.602;2023-04-24T12:17:15;2.22;;;1.70;;
30048;SDS011;16879;50.852;15.602;2023-04-24T12:19:47;2.70;;;2.22;;
30048;SDS011;16879;50.852;15.602;2023-04-24T12:22:14;2.53;;;2.25;;
30048;SDS011;16879;50.852;15.602;2023-04-24T12:25:00;5.43;;;2.60;;
30048;SDS011;16879;50.852;15.602;2023-04-24T12:27:28;6.65;;;2.42;;
30048;SDS011;16879;50.852;15.602;2023-04-24T12:29:57;3.20;;;2.40;;
30048;SDS011;16879;50.852;15.602;2023-04-24T12:32:24;3.33;;;2.33;;
30048;SDS011;16879;50.852;15.602;2023-04-24T12:34:51;2.78;;;2.10;;
30048;SDS011;16879;50.852;15.602;2023-04-24T12:37:17;5.03;;;2.05;;
30048;SDS011;16879;50.852;15.602;2023-04-24T12:42:30;16.92;;;9.90;;
30048;SDS011;16879;50.852;15.602;2023-04-24T12:44:57;6.93;;;4.65;;
30048;SDS011;16879;50.852;15.602;2023-04-24T12:47:24;4.05;;;3.40;;
30048;SDS011;16879;50.852;15.602;2023-04-24T12:49:51;4.25;;;3.40;;
30048;SDS011;16879;50.852;15.602;2023-04-24T12:52:21;5.47;;;2.88;;
30048;SDS011;16879;50.852;15.602;2023-04-24T12:54:48;3.25;;;2.58;;
30048;SDS011;16879;50.852;15.602;2023-04-24T12:57:14;6.97;;;3.28;;
30048;SDS011;16879;50.852;15.602;2023-04-24T12:59:40;5.60;;;3.00;;
30048;SDS011;16879;50.852;15.602;2023-04-24T13:02:07;11.32;;;4.70;;
30048;SDS011;16879;50.852;15.602;2023-04-24T13:04:34;8.45;;;3.38;;
30048;SDS011;16879;50.852;15.602;2023-04-24T13:07:00;7.82;;;4.47;;
30048;SDS011;16879;50.852;15.602;2023-04-24T13:09:27;4.18;;;3.45;;
30048;SDS011;16879;50.852;15.602;2023-04-24T13:11:53;2.60;;;2.08;;
30048;SDS011;16879;50.852;15.602;2023-04-24T13:14:21;4.38;;;2.45;;
30048;SDS011;16879;50.852;15.602;2023-04-24T13:16:47;2.60;;;2.15;;
30048;SDS011;16879;50.852;15.602;2023-04-24T13:19:14;1.90;;;1.80;;
30048;SDS011;16879;50.852;15.602;2023-04-24T13:21:40;3.92;;;1.40;;
30048;SDS011;16879;50.852;15.602;2023-04-24T13:24:06;1.63;;;1.52;;
30048;SDS011;16879;50.852;15.602;2023-04-24T13:26:34;2.17;;;2.08;;
30048;SDS011;16879;50.852;15.602;2023-04-24T13:29:01;2.22;;;1.70;;
30048;SDS011;16879;50.852;15.602;2023-04-24T13:31:28;4.18;;;2.70;;
30048;SDS011;16879;50.852;15.602;2023-04-24T13:33:55;7.10;;;4.15;;
30048;SDS011;16879;50.852;15.602;2023-04-24T13:36:21;3.30;;;2.70;;
30048;SDS011;16879;50.852;15.602;2023-04-24T13:38:47;5.60;;;3.30;;
30048;SDS011;16879;50.852;15.602;2023-04-24T13:41:14;6.35;;;3.08;;
30048;SDS011;16879;50.852;15.602;2023-04-24T13:43:40;5.25;;;3.35;;
30048;SDS011;16879;50.852;15.602;2023-04-24T13:46:07;6.80;;;4.05;;
30048;SDS011;16879;50.852;15.602;2023-04-24T13:48:40;4.72;;;3.15;;
30048;SDS011;16879;50.852;15.602;2023-04-24T13:51:06;5.68;;;3.53;;
30048;SDS011;16879;50.852;15.602;2023-04-24T13:53:32;6.03;;;3.58;;
30048;SDS011;16879;50.852;15.602;2023-04-24T13:56:01;4.50;;;2.72;;
30048;SDS011;16879;50.852;15.602;2023-04-24T13:58:27;3.85;;;2.78;;
30048;SDS011;16879;50.852;15.602;2023-04-24T14:00:55;7.80;;;4.20;;
30048;SDS011;16879;50.852;15.602;2023-04-24T14:03:21;5.15;;;3.95;;
30048;SDS011;16879;50.852;15.602;2023-04-24T14:05:48;4.55;;;3.00;;
30048;SDS011;16879;50.852;15.602;2023-04-24T14:08:14;5.10;;;3.15;;
30048;SDS011;16879;50.852;15.602;2023-04-24T14:11:01;5.35;;;4.25;;
30048;SDS011;16879;50.852;15.602;2023-04-24T14:13:26;4.25;;;3.60;;
30048;SDS011;16879;50.852;15.602;2023-04-24T14:15:56;7.13;;;3.83;;
30048;SDS011;16879;50.852;15.602;2023-04-24T14:18:22;8.75;;;5.68;;
30048;SDS011;16879;50.852;15.602;2023-04-24T14:20:48;7.00;;;5.10;;
30048;SDS011;16879;50.852;15.602;2023-04-24T14:23:15;5.05;;;4.55;;
30048;SDS011;16879;50.852;15.602;2023-04-24T14:25:44;7.30;;;5.53;;
30048;SDS011;16879;50.852;15.602;2023-04-24T14:28:10;6.20;;;5.15;;
30048;SDS011;16879;50.852;15.602;2023-04-24T14:30:37;6.60;;;5.35;;
30048;SDS011;16879;50.852;15.602;2023-04-24T14:33:07;5.72;;;4.47;;
30048;SDS011;16879;50.852;15.602;2023-04-24T14:35:33;5.20;;;3.63;;
30048;SDS011;16879;50.852;15.602;2023-04-24T14:38:00;6.22;;;4.03;;
30048;SDS011;16879;50.852;15.602;2023-04-24T14:40:26;4.82;;;3.83;;
30048;SDS011;16879;50.852;15.602;2023-04-24T14:42:54;6.13;;;4.05;;
30048;SDS011;16879;50.852;15.602;2023-04-24T14:45:24;6.45;;;4.35;;